createdAt,value
2022-11-20T00:02:04.212Z,2.15
2022-11-20T00:05:07.207Z,2.06
2022-11-20T00:08:09.340Z,2.07
2022-11-20T00:11:16.080Z,1.98
2022-11-20T00:14:18.668Z,2.09
2022-11-20T00:17:21.027Z,2.01
2022-11-20T00:20:23.189Z,1.93
2022-11-20T00:23:25.498Z,1.90
2022-11-20T00:26:28.931Z,1.98
2022-11-20T00:29:31.292Z,1.98
2022-11-20T00:32:33.608Z,2.08
2022-11-20T00:35:35.990Z,1.96
2022-11-20T00:38:38.337Z,1.86
2022-11-20T00:41:40.806Z,2.07
2022-11-20T00:44:42.905Z,2.04
2022-11-20T00:47:45.302Z,2.08
2022-11-20T00:50:47.365Z,2.06
2022-11-20T00:53:50.396Z,2.07
2022-11-20T00:56:54.499Z,2.13
2022-11-20T00:59:56.895Z,2.10
2022-11-20T01:02:58.967Z,2.19
2022-11-20T01:06:03.344Z,2.07
2022-11-20T01:09:12.271Z,2.10
2022-11-20T01:12:14.671Z,2.03
2022-11-20T01:15:16.845Z,2.04
2022-11-20T01:18:19.164Z,2.08
2022-11-20T01:21:24.491Z,2.07
2022-11-20T01:24:27.368Z,1.98
2022-11-20T01:27:29.431Z,1.86
2022-11-20T01:30:31.843Z,1.94
2022-11-20T01:33:33.913Z,1.98
2022-11-20T01:36:37.806Z,1.90
2022-11-20T01:39:39.873Z,1.95
2022-11-20T01:43:11.301Z,1.86
2022-11-20T01:46:19.240Z,1.79
2022-11-20T01:49:27.846Z,1.86
2022-11-20T01:52:39.478Z,1.87
2022-11-20T01:55:50.924Z,1.92
2022-11-20T01:58:54.643Z,1.91
2022-11-20T02:01:57.870Z,2.02
2022-11-20T02:05:11.473Z,2.08
2022-11-20T02:08:14.156Z,2.10
2022-11-20T02:11:16.504Z,2.13
2022-11-20T02:14:18.602Z,2.03
2022-11-20T02:17:21.617Z,2.10
2022-11-20T02:20:23.993Z,2.04
2022-11-20T02:23:54.821Z,1.98
2022-11-20T02:27:00.131Z,1.98
2022-11-20T02:30:08.483Z,2.03
2022-11-20T02:33:10.664Z,2.06
2022-11-20T02:36:16.325Z,2.04
2022-11-20T02:39:20.794Z,2.11
2022-11-20T02:42:23.390Z,2.23
2022-11-20T02:45:26.087Z,2.13
2022-11-20T02:48:32.698Z,2.10
2022-11-20T02:51:35.976Z,2.05
2022-11-20T02:54:38.299Z,2.21
2022-11-20T02:57:40.520Z,2.26
2022-11-20T03:00:42.934Z,2.29
2022-11-20T03:03:45.052Z,2.18
2022-11-20T03:06:47.409Z,2.22
2022-11-20T03:09:49.479Z,2.25
2022-11-20T03:12:56.355Z,2.30
2022-11-20T03:15:58.391Z,2.32
2022-11-20T03:19:01.068Z,2.33
2022-11-20T03:22:03.198Z,2.21
2022-11-20T03:25:06.299Z,2.34
2022-11-20T03:28:08.373Z,2.37
2022-11-20T03:31:14.089Z,2.36
2022-11-20T03:34:16.194Z,2.23
2022-11-20T03:37:18.611Z,2.25
2022-11-20T03:40:20.678Z,2.33
2022-11-20T03:43:22.987Z,2.34
2022-11-20T03:46:25.521Z,2.31
2022-11-20T03:49:27.868Z,2.36
2022-11-20T03:52:29.986Z,2.33
2022-11-20T03:55:32.339Z,2.30
2022-11-20T03:58:45.531Z,2.38
2022-11-20T04:01:49.548Z,2.43
2022-11-20T04:04:52.163Z,2.40
2022-11-20T04:07:54.644Z,2.35
2022-11-20T04:10:57.034Z,2.39
2022-11-20T04:14:02.130Z,2.37
2022-11-20T04:17:04.768Z,2.37
2022-11-20T04:20:07.536Z,2.32
2022-11-20T04:23:09.855Z,2.41
2022-11-20T04:26:12.914Z,2.47
2022-11-20T04:29:15.421Z,2.32
2022-11-20T04:32:17.546Z,2.33
2022-11-20T04:35:19.886Z,2.34
2022-11-20T04:38:21.952Z,2.33
2022-11-20T04:41:27.107Z,2.34
2022-11-20T04:44:29.178Z,2.35
2022-11-20T04:47:31.488Z,2.34
2022-11-20T04:50:33.545Z,2.42
2022-11-20T04:53:35.950Z,2.41
2022-11-20T04:56:38.048Z,2.52
2022-11-20T04:59:40.368Z,2.49
2022-11-20T05:02:42.441Z,2.58
2022-11-20T05:05:44.797Z,2.66
2022-11-20T05:08:46.881Z,2.55
2022-11-20T05:11:51.522Z,2.54
2022-11-20T05:14:53.889Z,2.48
2022-11-20T05:17:56.392Z,2.49
2022-11-20T05:20:58.980Z,2.46
2022-11-20T05:24:01.318Z,2.42
2022-11-20T05:27:03.405Z,2.45
2022-11-20T05:30:06.792Z,2.40
2022-11-20T05:33:09.093Z,2.46
2022-11-20T05:36:13.209Z,2.44
2022-11-20T05:39:15.300Z,2.39
2022-11-20T05:42:32.922Z,2.25
2022-11-20T05:45:34.980Z,2.43
2022-11-20T05:48:40.103Z,2.50
2022-11-20T05:51:42.175Z,2.47
2022-11-20T05:54:44.572Z,2.45
2022-11-20T05:57:46.716Z,2.50
2022-11-20T06:00:49.165Z,2.46
2022-11-20T06:03:52.262Z,2.56
2022-11-20T06:06:54.463Z,2.59
2022-11-20T06:09:56.809Z,2.55
2022-11-20T06:12:59.631Z,2.61
2022-11-20T06:16:03.082Z,2.62
2022-11-20T06:19:05.166Z,2.56
2022-11-20T06:22:07.520Z,2.66
2022-11-20T06:25:09.654Z,2.74
2022-11-20T06:28:12.050Z,2.67
2022-11-20T06:31:15.870Z,2.72
2022-11-20T06:34:18.444Z,2.67
2022-11-20T06:37:20.559Z,2.69
2022-11-20T06:40:23.112Z,2.70
2022-11-20T06:43:26.593Z,2.60
2022-11-20T06:46:29.023Z,2.73
2022-11-20T06:49:31.096Z,2.71
2022-11-20T06:52:35.026Z,2.78
2022-11-20T06:55:43.694Z,2.85
2022-11-20T06:58:46.182Z,2.77
2022-11-20T07:01:48.231Z,2.70
2022-11-20T07:04:50.565Z,2.76
2022-11-20T07:07:52.616Z,2.75
2022-11-20T07:11:00.637Z,2.72
2022-11-20T07:14:02.712Z,2.82
2022-11-20T07:17:05.023Z,2.85
2022-11-20T07:20:07.617Z,2.88
2022-11-20T07:23:09.937Z,2.85
2022-11-20T07:26:12.339Z,2.94
2022-11-20T07:29:14.655Z,2.92
2022-11-20T07:32:16.716Z,2.94
2022-11-20T07:35:19.816Z,2.90
2022-11-20T07:38:21.955Z,2.97
2022-11-20T07:41:24.295Z,3.00
2022-11-20T07:44:26.369Z,2.97
2022-11-20T07:47:28.725Z,3.07
2022-11-20T07:50:30.914Z,2.97
2022-11-20T07:53:33.392Z,3.02
2022-11-20T07:56:35.508Z,3.09
2022-11-20T07:59:37.911Z,3.17
2022-11-20T08:02:41.134Z,3.11
2022-11-20T08:05:43.506Z,3.14
2022-11-20T08:08:45.653Z,3.12
2022-11-20T08:12:06.549Z,2.95
2022-11-20T08:15:13.135Z,3.07
2022-11-20T08:18:32.527Z,3.22
2022-11-20T08:21:38.388Z,3.16
2022-11-20T08:24:40.959Z,3.32
2022-11-20T08:27:43.028Z,3.24
2022-11-20T08:30:46.855Z,3.25
2022-11-20T08:33:48.974Z,3.30
2022-11-20T08:36:51.342Z,3.47
2022-11-20T08:39:54.719Z,3.58
2022-11-20T08:42:57.238Z,3.66
2022-11-20T08:45:59.349Z,3.74
2022-11-20T08:49:01.914Z,3.72
2022-11-20T08:52:04.136Z,3.76
2022-11-20T08:55:08.313Z,3.86
2022-11-20T08:58:10.431Z,3.89
2022-11-20T09:01:12.819Z,4.06
2022-11-20T09:04:15.380Z,4.16
2022-11-20T09:07:17.868Z,4.20
2022-11-20T09:10:24.516Z,4.20
2022-11-20T09:13:29.440Z,4.15
2022-11-20T09:16:31.553Z,4.05
2022-11-20T09:19:36.132Z,4.05
2022-11-20T09:22:41.575Z,4.05
2022-11-20T09:25:44.203Z,4.02
2022-11-20T09:28:46.420Z,4.02
2022-11-20T09:31:48.808Z,4.12
2022-11-20T09:34:50.865Z,4.14
2022-11-20T09:37:53.230Z,4.11
2022-11-20T09:41:03.633Z,4.20
2022-11-20T09:44:41.345Z,4.27
2022-11-20T09:48:00.585Z,4.36
2022-11-20T09:51:23.065Z,4.35
2022-11-20T09:54:36.200Z,4.40
2022-11-20T09:57:43.776Z,4.33
2022-11-20T10:00:47.428Z,4.31
2022-11-20T10:04:00.766Z,4.49
2022-11-20T10:07:31.488Z,4.59
2022-11-20T10:10:34.239Z,4.65
2022-11-20T10:13:51.411Z,4.69
2022-11-20T10:17:12.359Z,4.77
2022-11-20T10:20:29.649Z,4.81
2022-11-20T10:24:14.041Z,4.92
2022-11-20T10:27:42.732Z,5.04
2022-11-20T10:30:49.341Z,5.29
2022-11-20T10:34:11.442Z,5.32
2022-11-20T10:37:23.612Z,5.58
2022-11-20T10:40:31.779Z,5.59
2022-11-20T10:43:34.519Z,5.62
2022-11-20T10:46:46.526Z,5.69
2022-11-20T10:49:54.103Z,5.82
2022-11-20T10:53:32.333Z,5.87
2022-11-20T10:56:50.141Z,5.89
2022-11-20T11:00:02.867Z,6.03
2022-11-20T11:03:24.696Z,6.27
2022-11-20T11:06:49.320Z,6.34
2022-11-20T11:09:55.464Z,6.28
2022-11-20T11:12:57.642Z,6.34
2022-11-20T11:16:00.139Z,6.40
2022-11-20T11:19:14.110Z,6.37
2022-11-20T11:22:19.160Z,6.32
2022-11-20T11:25:21.379Z,6.39
2022-11-20T11:28:27.109Z,6.41
2022-11-20T11:31:32.088Z,6.46
2022-11-20T11:34:34.663Z,6.50
2022-11-20T11:37:39.576Z,6.56
2022-11-20T11:40:42.058Z,6.54
2022-11-20T11:44:12.538Z,6.66
2022-11-20T11:47:30.206Z,6.67
2022-11-20T11:50:32.640Z,6.70
2022-11-20T11:53:42.426Z,6.69
2022-11-20T11:56:45.660Z,6.66
2022-11-20T12:00:06.767Z,6.71
2022-11-20T12:03:25.390Z,6.74
2022-11-20T12:06:30.708Z,6.82
2022-11-20T12:09:42.091Z,6.88
2022-11-20T12:12:45.799Z,6.95
2022-11-20T12:15:48.998Z,7.09
2022-11-20T12:18:53.397Z,7.15
2022-11-20T12:22:24.656Z,7.05
2022-11-20T12:25:33.268Z,7.20
2022-11-20T12:28:52.605Z,7.18
2022-11-20T12:32:13.343Z,7.06
2022-11-20T12:35:34.464Z,7.03
2022-11-20T12:39:09.799Z,6.96
2022-11-20T12:43:07.136Z,7.01
2022-11-20T12:46:28.164Z,6.96
2022-11-20T12:49:30.770Z,6.90
2022-11-20T12:52:52.988Z,6.97
2022-11-20T12:56:11.755Z,7.00
2022-11-20T12:59:23.021Z,6.92
2022-11-20T13:02:52.187Z,6.89
2022-11-20T13:06:14.450Z,6.88
2022-11-20T13:09:20.276Z,6.93
2022-11-20T13:12:37.823Z,6.91
2022-11-20T13:16:05.474Z,6.85
2022-11-20T13:19:13.355Z,6.84
2022-11-20T13:22:43.820Z,6.82
2022-11-20T13:25:46.001Z,6.86
2022-11-20T13:28:59.989Z,6.89
2022-11-20T13:32:20.033Z,6.89
2022-11-20T13:35:55.691Z,6.78
2022-11-20T13:38:58.221Z,6.64
2022-11-20T13:42:03.301Z,6.67
2022-11-20T13:45:21.596Z,6.61
2022-11-20T13:48:27.109Z,6.62
2022-11-20T13:51:35.292Z,6.59
2022-11-20T13:55:07.299Z,6.64
2022-11-20T13:58:35.439Z,6.46
2022-11-20T14:01:38.494Z,6.49
2022-11-20T14:04:45.885Z,6.58
2022-11-20T14:07:48.842Z,6.59
2022-11-20T14:10:51.312Z,6.61
2022-11-20T14:13:58.113Z,6.64
2022-11-20T14:17:21.194Z,6.62
2022-11-20T14:20:26.966Z,6.55
2022-11-20T14:23:30.674Z,6.50
2022-11-20T14:26:33.806Z,6.41
2022-11-20T14:29:38.411Z,6.34
2022-11-20T14:32:42.030Z,6.35
2022-11-20T14:35:50.389Z,6.28
2022-11-20T14:38:53.614Z,6.29
2022-11-20T14:41:55.969Z,6.27
2022-11-20T14:45:01.758Z,6.11
2022-11-20T14:48:04.502Z,6.13
2022-11-20T14:51:06.740Z,6.09
2022-11-20T14:54:17.546Z,6.06
2022-11-20T14:57:34.749Z,6.03
2022-11-20T15:00:38.114Z,5.97
2022-11-20T15:03:42.004Z,5.94
2022-11-20T15:06:53.277Z,5.82
2022-11-20T15:10:07.841Z,5.82
2022-11-20T15:13:17.345Z,5.75
2022-11-20T15:16:22.059Z,5.70
2022-11-20T15:19:26.684Z,5.70
2022-11-20T15:22:28.797Z,5.59
2022-11-20T15:25:31.734Z,5.47
2022-11-20T15:28:41.416Z,5.24
2022-11-20T15:31:47.066Z,5.28
2022-11-20T15:34:50.106Z,5.24
2022-11-20T15:37:52.918Z,5.18
2022-11-20T15:40:55.277Z,5.05
2022-11-20T15:43:58.529Z,4.95
2022-11-20T15:47:00.653Z,4.89
2022-11-20T15:50:03.703Z,4.95
2022-11-20T15:53:06.175Z,4.87
2022-11-20T15:56:15.444Z,4.79
2022-11-20T15:59:17.652Z,4.78
2022-11-20T16:02:20.039Z,4.66
2022-11-20T16:05:24.129Z,4.75
2022-11-20T16:08:26.275Z,4.62
2022-11-20T16:11:28.668Z,4.42
2022-11-20T16:15:13.478Z,4.42
2022-11-20T16:18:19.173Z,4.28
2022-11-20T16:21:21.574Z,4.30
2022-11-20T16:24:24.134Z,4.27
2022-11-20T16:27:26.381Z,4.33
2022-11-20T16:30:30.062Z,4.39
2022-11-20T16:33:32.118Z,4.41
2022-11-20T16:36:34.836Z,4.38
2022-11-20T16:39:36.896Z,4.35
2022-11-20T16:42:39.353Z,4.32
2022-11-20T16:45:43.216Z,4.32
2022-11-20T16:48:46.334Z,4.29
2022-11-20T16:51:48.502Z,4.28
2022-11-20T16:54:50.847Z,4.17
2022-11-20T16:57:52.940Z,4.26
2022-11-20T17:00:55.328Z,4.27
2022-11-20T17:04:07.233Z,4.29
2022-11-20T17:07:09.691Z,4.22
2022-11-20T17:10:12.032Z,4.14
2022-11-20T17:13:14.449Z,4.11
2022-11-20T17:16:19.294Z,4.06
2022-11-20T17:19:21.718Z,4.01
2022-11-20T17:22:23.837Z,4.05
2022-11-20T17:25:26.230Z,4.01
2022-11-20T17:28:28.369Z,3.99
2022-11-20T17:31:32.170Z,4.03
2022-11-20T17:34:34.289Z,4.02
2022-11-20T17:37:36.631Z,3.91
2022-11-20T17:40:38.696Z,3.77
2022-11-20T17:43:42.772Z,3.70
2022-11-20T17:46:44.849Z,3.66
2022-11-20T17:49:47.216Z,3.68
2022-11-20T17:52:49.326Z,3.61
2022-11-20T17:56:14.942Z,3.49
2022-11-20T17:59:18.502Z,3.45
2022-11-20T18:02:20.900Z,3.40
2022-11-20T18:05:23.525Z,3.42
2022-11-20T18:08:27.856Z,3.38
2022-11-20T18:11:35.593Z,3.26
2022-11-20T18:14:37.708Z,3.23
2022-11-20T18:17:40.064Z,3.10
2022-11-20T18:20:42.143Z,3.07
2022-11-20T18:23:44.468Z,3.07
2022-11-20T18:26:46.520Z,3.15
2022-11-20T18:29:52.126Z,3.15
2022-11-20T18:32:55.411Z,3.07
2022-11-20T18:35:57.759Z,3.08
2022-11-20T18:39:01.562Z,3.13
2022-11-20T18:42:23.022Z,3.14
2022-11-20T18:45:25.101Z,3.09
2022-11-20T18:48:27.401Z,3.11
2022-11-20T18:51:29.475Z,3.12
2022-11-20T18:54:31.959Z,3.12
2022-11-20T18:57:34.289Z,3.11
2022-11-20T19:00:36.699Z,3.11
2022-11-20T19:03:38.785Z,3.02
2022-11-20T19:06:42.493Z,3.04
2022-11-20T19:09:48.006Z,2.99
2022-11-20T19:12:50.406Z,2.96
2022-11-20T19:15:52.514Z,2.95
2022-11-20T19:18:57.184Z,2.91
2022-11-20T19:21:59.547Z,2.90
2022-11-20T19:25:02.064Z,2.84
2022-11-20T19:28:04.232Z,2.79
2022-11-20T19:31:09.146Z,2.77
2022-11-20T19:34:12.066Z,2.78
2022-11-20T19:37:14.485Z,2.79
2022-11-20T19:40:17.296Z,2.77
2022-11-20T19:43:19.652Z,2.67
2022-11-20T19:46:21.805Z,2.58
2022-11-20T19:49:24.393Z,2.51
2022-11-20T19:52:26.693Z,2.72
2022-11-20T19:55:29.079Z,2.59
2022-11-20T19:58:31.434Z,2.46
2022-11-20T20:01:35.283Z,2.54
2022-11-20T20:04:37.689Z,2.43
2022-11-20T20:07:40.170Z,2.32
2022-11-20T20:10:42.540Z,2.22
2022-11-20T20:13:45.636Z,2.15
2022-11-20T20:16:48.055Z,2.12
2022-11-20T20:19:50.144Z,2.03
2022-11-20T20:22:52.489Z,2.13
2022-11-20T20:25:54.552Z,2.15
2022-11-20T20:28:57.169Z,2.10
2022-11-20T20:31:59.709Z,2.09
2022-11-20T20:35:02.096Z,2.08
2022-11-20T20:38:04.229Z,2.07
2022-11-20T20:41:06.658Z,2.02
2022-11-20T20:44:27.340Z,2.03
2022-11-20T20:47:31.634Z,1.96
2022-11-20T20:50:33.717Z,1.99
2022-11-20T20:53:36.539Z,2.02
2022-11-20T20:56:38.606Z,2.05
2022-11-20T20:59:41.018Z,2.08
2022-11-20T21:02:43.093Z,2.14
2022-11-20T21:05:45.796Z,2.17
2022-11-20T21:08:47.888Z,2.23
2022-11-20T21:11:51.115Z,2.23
2022-11-20T21:14:53.180Z,2.23
2022-11-20T21:17:55.532Z,2.25
2022-11-20T21:21:16.909Z,2.23
2022-11-20T21:24:19.257Z,2.31
2022-11-20T21:27:21.320Z,2.42
2022-11-20T21:30:23.787Z,2.35
2022-11-20T21:33:25.926Z,2.32
2022-11-20T21:36:29.946Z,2.25
2022-11-20T21:39:32.004Z,2.17
2022-11-20T21:42:34.325Z,2.29
2022-11-20T21:45:36.412Z,2.21
2022-11-20T21:48:39.932Z,2.19
2022-11-20T21:51:42.019Z,2.21
2022-11-20T21:54:44.361Z,2.20
2022-11-20T21:57:46.433Z,2.06
2022-11-20T22:00:48.996Z,2.05
2022-11-20T22:03:54.009Z,2.11
2022-11-20T22:06:56.102Z,1.93
2022-11-20T22:09:58.432Z,2.02
2022-11-20T22:13:19.377Z,1.95
2022-11-20T22:16:22.121Z,1.82
2022-11-20T22:19:24.170Z,1.82
2022-11-20T22:22:26.521Z,1.91
2022-11-20T22:25:28.585Z,1.87
2022-11-20T22:28:31.622Z,1.80
2022-11-20T22:31:33.757Z,1.73
2022-11-20T22:34:36.168Z,1.77
2022-11-20T22:37:38.340Z,1.71
2022-11-20T22:40:40.694Z,1.58
2022-11-20T22:43:44.113Z,1.60
2022-11-20T22:46:46.536Z,1.59
2022-11-20T22:49:48.739Z,1.57
2022-11-20T22:52:51.224Z,1.52
2022-11-20T22:55:53.283Z,1.53
2022-11-20T22:58:56.090Z,1.51
2022-11-20T23:01:58.196Z,1.57
2022-11-20T23:05:00.603Z,1.53
2022-11-20T23:08:02.751Z,1.59
2022-11-20T23:11:08.004Z,1.49
2022-11-20T23:14:15.242Z,1.49
2022-11-20T23:17:17.704Z,1.49
2022-11-20T23:20:19.845Z,1.42
2022-11-20T23:23:22.277Z,1.37
2022-11-20T23:26:27.264Z,1.34
2022-11-20T23:29:29.720Z,1.36
2022-11-20T23:32:31.864Z,1.38
2022-11-20T23:35:38.869Z,1.29
2022-11-20T23:38:41.026Z,1.27
2022-11-20T23:41:43.441Z,1.22
2022-11-20T23:44:45.492Z,1.16
2022-11-20T23:47:47.820Z,1.15
2022-11-20T23:50:50.333Z,1.14
2022-11-20T23:53:52.704Z,1.01
2022-11-20T23:56:54.823Z,0.97
2022-11-20T23:59:57.196Z,1.08
